Time;durP1;ratioP1;P1;durP2;ratioP2;P2;SDS_P1;SDS_P2;PMS_P1;PMS_P2;Temp;Humidity;BMP_temperature;BMP_pressure;BME280_temperature;BME280_humidity;BME280_pressure;Samples;Min_cycle;Max_cycle;Signal;HPM_P1;HPM_P2
2021/04/25 00:01:34;;;;;;;2.53;0.63;;;;;;;;;;10093539;29;20046;-62
2021/04/25 00:06:32;;;;;;;4.97;1.00;;;;;;;;;;10091775;28;20043;-63
2021/04/25 00:11:29;;;;;;;6.25;1.00;;;;;;;;;;10082884;28;20770;-63
2021/04/25 00:16:32;;;;;;;3.93;0.70;;;;;;;;;;10095134;28;20066;-61
2021/04/25 00:21:30;;;;;;;1.92;0.52;;;;;;;;;;10088617;29;20035;-62
2021/04/25 00:26:28;;;;;;;10.23;1.00;;;;;;;;;;10101531;28;20051;-61
2021/04/25 00:31:25;;;;;;;3.37;0.63;;;;;;;;;;10096697;28;20497;-62
2021/04/25 00:36:23;;;;;;;3.43;0.50;;;;;;;;;;10083631;29;20039;-62
2021/04/25 00:41:20;;;;;;;7.40;1.40;;;;;;;;;;10096581;28;20047;-60
2021/04/25 00:46:18;;;;;;;2.67;0.83;;;;;;;;;;10094823;29;20131;-61
2021/04/25 00:51:15;;;;;;;1.80;0.73;;;;;;;;;;10084411;28;20047;-63
2021/04/25 00:56:13;;;;;;;0.73;0.37;;;;;;;;;;10080766;28;20028;-62
2021/04/25 01:01:10;;;;;;;1.38;0.35;;;;;;;;;;10074079;28;20040;-61
2021/04/25 01:06:08;;;;;;;1.73;0.70;;;;;;;;;;10087690;28;20059;-62
2021/04/25 01:11:05;;;;;;;0.57;0.50;;;;;;;;;;10086299;28;20098;-61
2021/04/25 01:16:03;;;;;;;2.03;1.03;;;;;;;;;;10095151;28;20429;-63
2021/04/25 01:21:01;;;;;;;5.63;0.70;;;;;;;;;;10090856;29;20414;-60
2021/04/25 01:25:58;;;;;;;1.67;0.60;;;;;;;;;;10078190;28;20158;-62
2021/04/25 01:30:56;;;;;;;0.60;0.60;;;;;;;;;;10096544;28;20055;-63
2021/04/25 01:35:53;;;;;;;0.63;0.60;;;;;;;;;;10091935;29;20391;-62
2021/04/25 01:40:51;;;;;;;2.37;0.63;;;;;;;;;;10082721;29;20521;-61
2021/04/25 01:45:48;;;;;;;1.47;0.40;;;;;;;;;;10089372;29;20055;-62
2021/04/25 01:50:46;;;;;;;2.60;0.70;;;;;;;;;;10080342;29;20528;-65
2021/04/25 01:55:44;;;;;;;0.53;0.40;;;;;;;;;;10089074;28;20134;-63
2021/04/25 02:00:42;;;;;;;1.97;0.60;;;;;;;;;;10085530;28;20074;-63
2021/04/25 02:05:41;;;;;;;2.20;0.43;;;;;;;;;;10082105;28;20043;-63
2021/04/25 02:10:39;;;;;;;3.70;0.75;;;;;;;;;;10079896;29;20039;-60
2021/04/25 02:15:36;;;;;;;3.72;0.47;;;;;;;;;;10110991;28;20036;-60
2021/04/25 02:20:34;;;;;;;6.97;0.90;;;;;;;;;;10091093;29;20048;-59
2021/04/25 02:25:32;;;;;;;0.83;0.30;;;;;;;;;;10086644;29;20156;-60
2021/04/25 02:30:30;;;;;;;5.20;0.63;;;;;;;;;;10078120;29;20036;-62
2021/04/25 02:35:29;;;;;;;2.33;0.30;;;;;;;;;;10096652;29;20119;-63
2021/04/25 02:40:28;;;;;;;0.57;0.20;;;;;;;;;;10093662;28;20037;-60
2021/04/25 02:45:26;;;;;;;1.85;0.65;;;;;;;;;;10092146;29;20399;-62
2021/04/25 02:50:25;;;;;;;1.83;0.75;;;;;;;;;;10113918;29;20032;-60
2021/04/25 02:55:22;;;;;;;3.42;0.57;;;;;;;;;;10129307;28;20050;-62
2021/04/25 03:00:21;;;;;;;3.13;0.60;;;;;;;;;;10154270;28;20509;-60
2021/04/25 03:05:19;;;;;;;1.05;0.40;;;;;;;;;;10127275;28;20523;-63
2021/04/25 03:10:17;;;;;;;0.73;0.37;;;;;;;;;;10146777;28;20040;-61
2021/04/25 03:15:15;;;;;;;4.20;0.50;;;;;;;;;;10141744;28;20043;-61
2021/04/25 03:20:14;;;;;;;2.15;0.73;;;;;;;;;;10147609;28;20058;-62
2021/04/25 03:25:12;;;;;;;2.13;1.00;;;;;;;;;;10147946;28;20050;-64
2021/04/25 03:30:10;;;;;;;1.90;0.57;;;;;;;;;;10145643;28;20035;-60
2021/04/25 03:35:10;;;;;;;1.30;0.60;;;;;;;;;;10148676;28;20043;-61
2021/04/25 03:40:08;;;;;;;0.82;0.60;;;;;;;;;;10129116;28;20114;-62
2021/04/25 03:45:06;;;;;;;;;;;;;;;;;;10147476;28;20032;-60
2021/04/25 03:50:03;;;;;;;3.50;1.23;;;;;;;;;;10143680;28;19924;-64
2021/04/25 03:55:01;;;;;;;2.07;0.33;;;;;;;;;;10146807;28;20134;-59
2021/04/25 04:00:00;;;;;;;3.63;0.80;;;;;;;;;;10136455;28;20047;-61
2021/04/25 04:04:57;;;;;;;;;;;;;;;;;;10145787;28;20071;-60
2021/04/25 04:09:54;;;;;;;3.97;0.80;;;;;;;;;;10162013;28;20354;-62
2021/04/25 04:14:52;;;;;;;4.93;0.73;;;;;;;;;;10144333;28;20124;-60
2021/04/25 04:19:49;;;;;;;2.13;0.67;;;;;;;;;;10134405;28;20043;-63
2021/04/25 04:24:46;;;;;;;0.90;0.90;;;;;;;;;;10146488;28;20551;-60
2021/04/25 04:29:44;;;;;;;2.50;0.50;;;;;;;;;;10144519;28;20041;-63
2021/04/25 04:34:41;;;;;;;1.60;0.40;;;;;;;;;;10147491;28;20066;-61
2021/04/25 04:39:39;;;;;;;1.93;0.30;;;;;;;;;;10138583;28;20513;-59
2021/04/25 04:44:36;;;;;;;6.63;0.73;;;;;;;;;;10144093;28;20035;-63
2021/04/25 04:49:35;;;;;;;2.33;0.87;;;;;;;;;;10134072;28;20094;-59
2021/04/25 04:54:32;;;;;;;;;;;;;;;;;;10159202;28;20031;-62
2021/04/25 04:59:29;;;;;;;0.40;0.25;;;;;;;;;;10142946;28;19918;-58
2021/04/25 05:04:27;;;;;;;8.57;1.03;;;;;;;;;;10151738;28;20031;-60
2021/04/25 05:09:24;;;;;;;3.37;1.70;;;;;;;;;;10143434;28;20066;-61
2021/04/25 05:14:22;;;;;;;0.73;0.57;;;;;;;;;;10144170;28;20501;-61
2021/04/25 05:19:19;;;;;;;2.23;0.47;;;;;;;;;;10141377;28;20381;-63
2021/04/25 05:24:17;;;;;;;2.40;0.63;;;;;;;;;;10142002;28;20050;-60
2021/04/25 05:29:15;;;;;;;0.20;0.20;;;;;;;;;;10103952;28;20413;-62
2021/04/25 05:34:12;;;;;;;2.27;0.73;;;;;;;;;;10116272;28;20042;-63
2021/04/25 05:39:09;;;;;;;2.77;0.97;;;;;;;;;;10109644;28;20043;-57
2021/04/25 05:44:07;;;;;;;5.40;0.70;;;;;;;;;;10113361;28;20102;-61
2021/04/25 05:49:05;;;;;;;2.87;0.80;;;;;;;;;;10127780;28;20050;-61
2021/04/25 05:54:03;;;;;;;1.87;0.50;;;;;;;;;;10124840;28;20035;-62
2021/04/25 05:59:00;;;;;;;4.15;0.52;;;;;;;;;;10127681;28;20040;-59
2021/04/25 06:03:57;;;;;;;4.03;1.17;;;;;;;;;;10105224;28;20044;-61
2021/04/25 06:08:56;;;;;;;1.33;0.53;;;;;;;;;;10116009;28;20042;-64
2021/04/25 06:13:53;;;;;;;0.82;0.60;;;;;;;;;;10112652;28;20114;-63
2021/04/25 06:18:51;;;;;;;7.33;0.83;;;;;;;;;;10113811;28;20115;-61
2021/04/25 06:23:48;;;;;;;5.43;0.70;;;;;;;;;;10077615;28;20068;-61
2021/04/25 06:28:45;;;;;;;1.83;0.50;;;;;;;;;;10075650;29;20066;-62
2021/04/25 06:33:44;;;;;;;3.07;0.83;;;;;;;;;;10081481;28;20050;-58
2021/04/25 06:38:41;;;;;;;0.70;0.60;;;;;;;;;;10079199;29;20505;-60
2021/04/25 06:43:39;;;;;;;1.50;0.67;;;;;;;;;;10099049;29;20028;-64
2021/04/25 06:48:36;;;;;;;1.80;0.50;;;;;;;;;;10072591;29;20036;-62
2021/04/25 06:53:34;;;;;;;4.40;1.33;;;;;;;;;;10080562;29;20028;-63
2021/04/25 06:58:31;;;;;;;0.57;0.20;;;;;;;;;;10091588;29;20031;-63
2021/04/25 07:03:28;;;;;;;1.90;0.57;;;;;;;;;;10078396;28;20118;-62
2021/04/25 07:08:26;;;;;;;3.57;0.87;;;;;;;;;;10076906;28;20107;-62
2021/04/25 07:13:24;;;;;;;3.93;0.77;;;;;;;;;;10071971;28;20023;-58
2021/04/25 07:18:21;;;;;;;3.83;0.70;;;;;;;;;;10084045;29;20182;-61
2021/04/25 07:23:19;;;;;;;5.73;0.60;;;;;;;;;;10063856;29;20036;-62
2021/04/25 07:28:18;;;;;;;2.38;1.02;;;;;;;;;;10080534;29;20036;-61
2021/04/25 07:33:15;;;;;;;4.00;0.55;;;;;;;;;;10080879;29;20039;-64
2021/04/25 07:38:13;;;;;;;2.53;0.80;;;;;;;;;;10078105;29;20639;-62
2021/04/25 07:43:11;;;;;;;0.90;0.50;;;;;;;;;;10082816;29;20104;-63
2021/04/25 07:48:08;;;;;;;2.27;0.70;;;;;;;;;;10098307;29;20107;-60
2021/04/25 07:53:06;;;;;;;12.30;5.00;;;;;;;;;;10080488;29;20068;-62
2021/04/25 07:58:03;;;;;;;5.53;3.20;;;;;;;;;;10070895;29;20123;-63
2021/04/25 08:03:00;;;;;;;4.80;1.67;;;;;;;;;;10073364;29;20047;-62
2021/04/25 08:07:58;;;;;;;1.77;0.80;;;;;;;;;;10089327;28;20531;-62
2021/04/25 08:12:55;;;;;;;2.53;0.67;;;;;;;;;;10078373;28;21199;-61
2021/04/25 08:17:56;;;;;;;5.63;1.30;;;;;;;;;;10078697;29;20042;-61
2021/04/25 08:22:53;;;;;;;1.90;0.93;;;;;;;;;;10090196;29;20039;-60
2021/04/25 08:27:50;;;;;;;1.10;0.40;;;;;;;;;;10063617;29;20039;-61
2021/04/25 08:32:48;;;;;;;2.17;0.43;;;;;;;;;;10080630;28;20618;-63
2021/04/25 08:37:46;;;;;;;1.37;0.70;;;;;;;;;;10091075;28;20042;-59
2021/04/25 08:42:43;;;;;;;0.98;0.30;;;;;;;;;;10092381;28;20996;-62
2021/04/25 08:47:50;;;;;;;3.23;1.23;;;;;;;;;;10086706;29;20097;-60
2021/04/25 08:52:48;;;;;;;1.20;0.77;;;;;;;;;;10073381;28;20054;-61
2021/04/25 08:57:46;;;;;;;0.50;0.40;;;;;;;;;;10080013;29;20044;-57
2021/04/25 09:02:44;;;;;;;0.40;0.30;;;;;;;;;;10095902;28;20054;-62
2021/04/25 09:07:51;;;;;;;0.60;0.30;;;;;;;;;;10079737;29;20437;-61
2021/04/25 09:12:49;;;;;;;1.85;0.30;;;;;;;;;;10079939;28;20047;-58
2021/04/25 09:17:57;;;;;;;0.90;0.47;;;;;;;;;;10074754;29;20039;-62
2021/04/25 09:22:54;;;;;;;0.43;0.10;;;;;;;;;;10070989;29;20538;-63
2021/04/25 09:27:52;;;;;;;0.30;0.30;;;;;;;;;;10072392;29;20063;-60
2021/04/25 09:32:49;;;;;;;;;;;;;;;;;;10081878;29;20797;-61
2021/04/25 09:37:48;;;;;;;1.55;0.43;;;;;;;;;;10084239;28;19965;-62
2021/04/25 09:42:54;;;;;;;0.88;0.63;;;;;;;;;;10078246;29;20635;-61
2021/04/25 09:47:52;;;;;;;4.32;0.52;;;;;;;;;;10071672;28;20047;-61
2021/04/25 09:52:51;;;;;;;2.78;0.70;;;;;;;;;;10077881;29;20046;-62
2021/04/25 09:57:49;;;;;;;1.42;0.50;;;;;;;;;;10079961;29;20039;-61
2021/04/25 10:02:46;;;;;;;;;;;;;;;;;;10057798;28;20032;-60
2021/04/25 10:07:44;;;;;;;3.35;0.98;;;;;;;;;;10075515;29;19929;-61
2021/04/25 10:12:45;;;;;;;2.13;0.30;;;;;;;;;;10085620;28;20464;-62
2021/04/25 10:17:47;;;;;;;2.22;0.25;;;;;;;;;;10060430;29;20126;-60
2021/04/25 10:22:45;;;;;;;1.75;0.47;;;;;;;;;;10072856;29;20054;-57
2021/04/25 10:27:46;;;;;;;0.75;0.30;;;;;;;;;;10097290;29;20044;-62
2021/04/25 10:32:44;;;;;;;1.67;0.20;;;;;;;;;;10072552;28;20115;-61
2021/04/25 10:37:42;;;;;;;2.63;0.52;;;;;;;;;;10078047;28;20040;-65
2021/04/25 10:42:39;;;;;;;;;;;;;;;;;;10104398;28;20050;-61
2021/04/25 10:47:38;;;;;;;0.23;0.03;;;;;;;;;;10063354;29;19918;-61
2021/04/25 10:52:36;;;;;;;0.73;0.20;;;;;;;;;;10075592;28;20387;-63
2021/04/25 10:57:34;;;;;;;2.20;0.63;;;;;;;;;;10064584;29;20505;-59
2021/04/25 11:02:31;;;;;;;;;;;;;;;;;;10089880;28;20048;-64
2021/04/25 11:07:35;;;;;;;1.52;0.38;;;;;;;;;;10075685;28;19923;-61
2021/04/25 11:12:40;;;;;;;0.10;0.10;;;;;;;;;;10080726;29;20044;-61
2021/04/25 11:17:37;;;;;;;0.08;0.08;;;;;;;;;;10080489;28;20702;-62
2021/04/25 11:22:34;;;;;;;;;;;;;;;;;;10129170;28;20050;-63
2021/04/25 11:27:32;;;;;;;0.43;0.30;;;;;;;;;;10084779;28;19926;-61
2021/04/25 11:32:30;;;;;;;;;;;;;;;;;;10073521;28;20094;-61
2021/04/25 11:37:27;;;;;;;1.77;0.50;;;;;;;;;;10082351;29;19915;-65
2021/04/25 11:42:27;;;;;;;0.65;0.30;;;;;;;;;;10081188;29;20050;-62
2021/04/25 11:47:29;;;;;;;0.10;0.10;;;;;;;;;;10080012;29;20087;-65
2021/04/25 11:52:28;;;;;;;0.17;0.10;;;;;;;;;;10084864;29;20032;-61
2021/04/25 11:57:26;;;;;;;2.53;0.57;;;;;;;;;;10080647;28;20043;-65
2021/04/25 12:02:24;;;;;;;0.50;0.50;;;;;;;;;;10082731;28;20060;-63
2021/04/25 12:07:40;;;;;;;1.48;0.73;;;;;;;;;;10077283;29;20055;-65
2021/04/25 12:12:58;;;;;;;1.05;0.40;;;;;;;;;;10080430;28;20460;-60
2021/04/25 12:17:56;;;;;;;0.35;0.25;;;;;;;;;;10079469;29;20133;-65
2021/04/25 12:22:54;;;;;;;1.25;0.55;;;;;;;;;;10130353;28;20115;-66
2021/04/25 12:27:51;;;;;;;;;;;;;;;;;;10094945;28;20031;-63
2021/04/25 12:32:59;;;;;;;0.65;0.10;;;;;;;;;;10089920;28;19973;-64
2021/04/25 12:37:56;;;;;;;0.40;0.40;;;;;;;;;;10111555;28;20701;-62
2021/04/25 12:42:54;;;;;;;;;;;;;;;;;;10108998;28;20043;-62
2021/04/25 12:47:51;;;;;;;0.73;0.35;;;;;;;;;;10113563;28;19953;-64
2021/04/25 12:52:48;;;;;;;;;;;;;;;;;;10111053;28;20083;-63
2021/04/25 12:57:46;;;;;;;1.45;0.10;;;;;;;;;;10118699;28;20390;-59
2021/04/25 13:02:43;;;;;;;;;;;;;;;;;;10121239;28;20142;-64
2021/04/25 13:07:41;;;;;;;2.35;0.60;;;;;;;;;;10109632;28;19926;-62
2021/04/25 13:12:38;;;;;;;;;;;;;;;;;;10111134;28;20032;-63
2021/04/25 13:17:38;;;;;;;5.78;0.77;;;;;;;;;;10124534;28;20384;-63
2021/04/25 13:22:35;;;;;;;2.13;0.90;;;;;;;;;;10118777;28;20032;-63
2021/04/25 13:27:33;;;;;;;;;;;;;;;;;;10115844;28;20039;-64
2021/04/25 13:32:30;;;;;;;4.45;1.88;;;;;;;;;;10113313;28;20028;-62
2021/04/25 13:37:27;;;;;;;;;;;;;;;;;;10117502;28;20524;-61
2021/04/25 13:42:25;;;;;;;2.55;0.63;;;;;;;;;;10106753;28;19921;-63
2021/04/25 13:47:22;;;;;;;;;;;;;;;;;;10128098;28;20421;-63
2021/04/25 13:52:20;;;;;;;0.55;0.28;;;;;;;;;;10111393;28;19914;-63
2021/04/25 13:57:19;;;;;;;;;;;;;;;;;;10102335;28;20031;-62
2021/04/25 14:02:16;;;;;;;;;;;;;;;;;;10118759;28;20018;-65
2021/04/25 14:07:14;;;;;;;1.20;0.52;;;;;;;;;;10103380;28;20336;-60
2021/04/25 14:12:11;;;;;;;;;;;;;;;;;;10115108;28;20064;-64
2021/04/25 14:17:08;;;;;;;1.33;0.60;;;;;;;;;;10110731;28;19921;-60
2021/04/25 14:22:06;;;;;;;;;;;;;;;;;;10114766;28;20040;-59
2021/04/25 14:27:03;;;;;;;2.57;0.10;;;;;;;;;;10122309;28;19930;-60
2021/04/25 14:32:01;;;;;;;1.48;0.52;;;;;;;;;;10122105;28;20341;-61
2021/04/25 14:36:58;;;;;;;1.03;0.40;;;;;;;;;;10124897;28;20038;-62
2021/04/25 14:41:56;;;;;;;1.03;0.47;;;;;;;;;;10124523;28;20365;-62
2021/04/25 14:46:54;;;;;;;0.10;0.10;;;;;;;;;;10124681;28;20550;-62
2021/04/25 14:51:53;;;;;;;2.15;0.40;;;;;;;;;;10120143;28;20070;-62
2021/04/25 14:56:50;;;;;;;0.68;0.40;;;;;;;;;;10114114;28;20094;-60
2021/04/25 15:01:48;;;;;;;0.57;0.50;;;;;;;;;;10117023;28;20094;-60
2021/04/25 15:06:48;;;;;;;1.20;0.30;;;;;;;;;;10116598;28;20046;-65
2021/04/25 15:11:46;;;;;;;0.35;0.22;;;;;;;;;;10117863;28;20039;-62
2021/04/25 15:16:43;;;;;;;1.37;0.30;;;;;;;;;;10123431;28;20036;-65
2021/04/25 15:21:41;;;;;;;0.32;0.32;;;;;;;;;;10115933;28;20232;-62
2021/04/25 15:26:38;;;;;;;0.80;0.28;;;;;;;;;;10120297;28;20048;-61
2021/04/25 15:31:36;;;;;;;0.37;0.20;;;;;;;;;;10114088;28;20054;-62
2021/04/25 15:36:34;;;;;;;0.10;0.10;;;;;;;;;;10111856;28;20044;-62
2021/04/25 15:41:31;;;;;;;0.20;0.20;;;;;;;;;;10116616;28;20443;-64
2021/04/25 15:46:29;;;;;;;0.88;0.32;;;;;;;;;;10114249;28;20082;-62
2021/04/25 15:51:27;;;;;;;0.73;0.20;;;;;;;;;;10115899;28;20059;-63
2021/04/25 15:56:25;;;;;;;0.10;0.10;;;;;;;;;;10106072;28;20031;-61
2021/04/25 16:01:22;;;;;;;;;;;;;;;;;;10110967;28;20053;-62
2021/04/25 16:06:20;;;;;;;0.20;0.20;;;;;;;;;;10078327;29;19923;-63
2021/04/25 16:11:17;;;;;;;0.20;0.20;;;;;;;;;;10084541;29;20178;-62
2021/04/25 16:16:15;;;;;;;0.67;0.30;;;;;;;;;;10078792;28;20028;-60
2021/04/25 16:21:12;;;;;;;1.53;0.30;;;;;;;;;;10072065;29;20046;-61
2021/04/25 16:26:10;;;;;;;1.80;0.53;;;;;;;;;;10081302;29;20115;-61
2021/04/25 16:31:07;;;;;;;0.20;0.20;;;;;;;;;;10077928;28;20300;-65
2021/04/25 16:36:05;;;;;;;0.57;0.57;;;;;;;;;;10078125;29;20063;-64
2021/04/25 16:41:03;;;;;;;0.63;0.10;;;;;;;;;;10080405;28;20055;-63
2021/04/25 16:46:01;;;;;;;1.35;0.60;;;;;;;;;;10080414;29;20650;-64
2021/04/25 16:50:59;;;;;;;0.70;0.40;;;;;;;;;;10076373;28;20101;-63
2021/04/25 16:55:56;;;;;;;0.15;0.15;;;;;;;;;;10059481;28;20043;-63
2021/04/25 17:00:54;;;;;;;0.17;0.10;;;;;;;;;;10097097;28;20054;-64
2021/04/25 17:05:51;;;;;;;2.23;0.47;;;;;;;;;;10117581;28;20037;-62
2021/04/25 17:10:49;;;;;;;0.60;0.20;;;;;;;;;;10116160;28;20035;-65
2021/04/25 17:15:46;;;;;;;0.40;0.27;;;;;;;;;;10094534;28;20509;-59
2021/04/25 17:20:44;;;;;;;0.40;0.20;;;;;;;;;;10109416;28;20115;-61
2021/04/25 17:25:42;;;;;;;3.65;0.40;;;;;;;;;;10103675;28;20512;-63
2021/04/25 17:30:40;;;;;;;0.88;0.13;;;;;;;;;;10119509;28;20039;-62
2021/04/25 17:35:37;;;;;;;0.20;0.20;;;;;;;;;;10110170;28;20047;-60
2021/04/25 17:40:35;;;;;;;1.87;0.37;;;;;;;;;;10117609;28;20520;-67
2021/04/25 17:45:32;;;;;;;0.10;0.10;;;;;;;;;;10112297;28;20588;-64
2021/04/25 17:50:30;;;;;;;3.43;0.50;;;;;;;;;;10108074;28;20075;-62
2021/04/25 17:55:28;;;;;;;;;;;;;;;;;;10110257;28;20081;-65
2021/04/25 18:00:27;;;;;;;0.93;0.57;;;;;;;;;;10116302;28;19915;-61
2021/04/25 18:05:24;;;;;;;0.35;0.30;;;;;;;;;;10119189;28;20027;-63
2021/04/25 18:10:26;;;;;;;0.40;0.20;;;;;;;;;;10113061;28;20036;-64
2021/04/25 18:15:23;;;;;;;1.05;0.32;;;;;;;;;;10115132;28;20535;-64
2021/04/25 18:20:21;;;;;;;0.10;0.10;;;;;;;;;;10113923;28;20401;-63
2021/04/25 18:25:19;;;;;;;2.23;1.00;;;;;;;;;;10113658;28;20031;-63
2021/04/25 18:30:18;;;;;;;3.23;1.23;;;;;;;;;;10101761;28;20040;-65
2021/04/25 18:35:18;;;;;;;0.70;0.57;;;;;;;;;;10112788;28;20035;-62
2021/04/25 18:40:22;;;;;;;0.95;0.50;;;;;;;;;;10108561;28;20513;-60
2021/04/25 18:45:20;;;;;;;1.35;0.60;;;;;;;;;;10097094;28;20509;-62
2021/04/25 18:50:18;;;;;;;2.78;0.40;;;;;;;;;;10114792;28;20039;-62
2021/04/25 18:55:16;;;;;;;1.13;0.40;;;;;;;;;;10115049;28;20521;-61
2021/04/25 19:00:32;;;;;;;1.00;0.50;;;;;;;;;;10108130;28;20120;-64
2021/04/25 19:05:30;;;;;;;0.95;0.25;;;;;;;;;;10083252;28;20576;-61
2021/04/25 19:10:27;;;;;;;1.70;0.67;;;;;;;;;;10081628;28;20040;-67
2021/04/25 19:15:25;;;;;;;0.13;0.13;;;;;;;;;;10090012;29;20027;-64
2021/04/25 19:20:24;;;;;;;0.63;0.20;;;;;;;;;;10093755;29;20055;-63
2021/04/25 19:25:21;;;;;;;;;;;;;;;;;;10107435;28;20035;-63
2021/04/25 19:30:20;;;;;;;1.10;0.30;;;;;;;;;;10125260;28;19922;-64
2021/04/25 19:35:17;;;;;;;0.20;0.20;;;;;;;;;;10090577;28;20122;-63
2021/04/25 19:40:16;;;;;;;0.30;0.10;;;;;;;;;;10077417;28;20032;-61
2021/04/25 19:45:14;;;;;;;1.85;0.75;;;;;;;;;;10082789;28;20051;-62
2021/04/25 19:50:12;;;;;;;;;;;;;;;;;;10080478;28;20044;-61
2021/04/25 19:55:10;;;;;;;2.40;0.67;;;;;;;;;;10088541;28;19981;-62
2021/04/25 20:00:10;;;;;;;0.95;0.40;;;;;;;;;;10086563;29;20051;-62
2021/04/25 20:05:08;;;;;;;4.38;1.38;;;;;;;;;;10088994;28;20082;-66
2021/04/25 20:10:08;;;;;;;21.77;5.93;;;;;;;;;;10121405;28;20130;-64
2021/04/25 20:15:06;;;;;;;7.50;1.92;;;;;;;;;;10115701;28;20289;-65
2021/04/25 20:20:04;;;;;;;5.85;1.25;;;;;;;;;;10124641;28;20039;-62
2021/04/25 20:25:02;;;;;;;;;;;;;;;;;;10143286;28;20077;-65
2021/04/25 20:29:59;;;;;;;4.97;1.27;;;;;;;;;;10117940;28;20369;-63
2021/04/25 20:34:56;;;;;;;2.03;1.20;;;;;;;;;;10087484;29;20059;-64
2021/04/25 20:39:54;;;;;;;0.93;0.70;;;;;;;;;;10089330;29;20051;-63
2021/04/25 20:44:51;;;;;;;1.77;0.40;;;;;;;;;;10097087;28;20042;-64
2021/04/25 20:49:49;;;;;;;1.60;0.73;;;;;;;;;;10125971;28;20051;-64
2021/04/25 20:54:46;;;;;;;3.97;0.97;;;;;;;;;;10123123;28;20071;-61
2021/04/25 20:59:44;;;;;;;1.67;0.73;;;;;;;;;;10120507;28;20517;-61
2021/04/25 21:04:41;;;;;;;3.07;0.80;;;;;;;;;;10119786;28;20047;-62
2021/04/25 21:09:38;;;;;;;3.13;0.80;;;;;;;;;;10116955;28;20035;-65
2021/04/25 21:14:36;;;;;;;2.23;0.83;;;;;;;;;;10118283;28;20042;-61
2021/04/25 21:19:33;;;;;;;5.17;1.20;;;;;;;;;;10122386;28;20098;-67
2021/04/25 21:24:31;;;;;;;7.27;0.97;;;;;;;;;;10116928;28;20518;-62
2021/04/25 21:29:28;;;;;;;5.27;1.10;;;;;;;;;;10111037;28;20040;-68
2021/04/25 21:34:26;;;;;;;3.90;0.80;;;;;;;;;;10127766;28;20071;-63
2021/04/25 21:39:23;;;;;;;4.27;1.20;;;;;;;;;;10104030;28;20031;-62
2021/04/25 21:44:21;;;;;;;3.40;0.90;;;;;;;;;;10128909;28;20043;-65
2021/04/25 21:49:19;;;;;;;1.27;0.80;;;;;;;;;;10122114;28;20512;-64
2021/04/25 21:54:16;;;;;;;2.53;0.60;;;;;;;;;;10135580;28;20035;-62
2021/04/25 21:59:14;;;;;;;2.13;1.10;;;;;;;;;;10120253;28;20036;-63
2021/04/25 22:04:11;;;;;;;1.57;1.10;;;;;;;;;;10091102;28;20046;-61
2021/04/25 22:09:09;;;;;;;1.67;0.73;;;;;;;;;;10108865;28;20040;-61
2021/04/25 22:14:06;;;;;;;3.03;0.60;;;;;;;;;;10121542;28;20380;-65
2021/04/25 22:19:04;;;;;;;0.97;0.77;;;;;;;;;;10084416;28;20189;-64
2021/04/25 22:24:01;;;;;;;2.43;1.10;;;;;;;;;;10103207;28;20032;-62
2021/04/25 22:28:59;;;;;;;3.17;1.23;;;;;;;;;;10099371;28;20126;-63
2021/04/25 22:33:56;;;;;;;3.43;0.90;;;;;;;;;;10102226;29;20110;-56
2021/04/25 22:38:54;;;;;;;7.50;0.90;;;;;;;;;;10098642;28;20035;-63
2021/04/25 22:43:51;;;;;;;6.63;0.97;;;;;;;;;;10095464;28;20571;-58
2021/04/25 22:48:48;;;;;;;1.87;0.80;;;;;;;;;;10112284;28;20102;-63
2021/04/25 22:53:46;;;;;;;2.10;0.60;;;;;;;;;;10134513;28;20038;-65
2021/04/25 22:58:43;;;;;;;3.60;1.03;;;;;;;;;;10134207;28;20039;-64
2021/04/25 23:03:40;;;;;;;3.63;0.90;;;;;;;;;;10116242;28;21644;-62
2021/04/25 23:08:38;;;;;;;3.73;0.60;;;;;;;;;;10123443;28;20087;-63
2021/04/25 23:13:36;;;;;;;0.90;0.83;;;;;;;;;;10130516;28;20031;-64
2021/04/25 23:18:33;;;;;;;3.57;0.73;;;;;;;;;;10128833;28;20063;-64
2021/04/25 23:23:30;;;;;;;1.70;0.80;;;;;;;;;;10127190;29;20020;-62
2021/04/25 23:28:28;;;;;;;3.73;1.23;;;;;;;;;;10128497;28;20028;-62
2021/04/25 23:33:25;;;;;;;4.17;0.97;;;;;;;;;;10124393;28;20636;-63
2021/04/25 23:38:23;;;;;;;2.78;0.85;;;;;;;;;;10128441;28;20086;-61
2021/04/25 23:43:21;;;;;;;3.33;0.90;;;;;;;;;;10125893;28;20082;-64
2021/04/25 23:48:18;;;;;;;2.13;0.67;;;;;;;;;;10089748;29;20130;-62
2021/04/25 23:53:15;;;;;;;3.70;1.13;;;;;;;;;;10082194;28;20028;-64
2021/04/25 23:58:13;;;;;;;6.80;1.47;;;;;;;;;;10082261;28;20036;-60
